Time;durP1;ratioP1;P1;durP2;ratioP2;P2;SDS_P1;SDS_P2;PMS_P1;PMS_P2;Temp;Humidity;BMP_temperature;BMP_pressure;BME280_temperature;BME280_humidity;BME280_pressure;Samples;Min_cycle;Max_cycle;Signal;HPM_P1;HPM_P2
2020/12/13 00:00:46;;;;;;;87.03;35.50;;;7.60;99.90;;;;;;4396510;32;20598;-69
2020/12/13 00:03:17;;;;;;;83.47;35.33;;;7.60;99.90;;;;;;4396623;32;20172;-69
2020/12/13 00:05:45;;;;;;;95.47;36.90;;;7.60;99.90;;;;;;4399342;32;20655;-69
2020/12/13 00:08:16;;;;;;;86.37;35.80;;;7.60;99.90;;;;;;4390824;32;20209;-69
2020/12/13 00:10:45;;;;;;;91.97;36.93;;;7.60;99.90;;;;;;4400665;32;20190;-73
2020/12/13 00:13:13;;;;;;;95.00;38.20;;;7.60;99.90;;;;;;4389607;32;20207;-70
2020/12/13 00:15:42;;;;;;;100.30;36.97;;;7.60;99.90;;;;;;4390997;32;20196;-71
2020/12/13 00:18:11;;;;;;;88.37;36.20;;;7.70;99.90;;;;;;4393445;32;20505;-71
2020/12/13 00:20:47;;;;;;;97.17;37.83;;;7.70;99.90;;;;;;4395216;32;20223;-69
2020/12/13 00:23:15;;;;;;;83.70;34.47;;;7.70;99.90;;;;;;4395608;32;20144;-69
2020/12/13 00:25:47;;;;;;;83.23;35.03;;;7.70;99.90;;;;;;4398440;32;20151;-69
2020/12/13 00:28:13;;;;;;;91.63;35.90;;;7.70;99.90;;;;;;4394293;32;20434;-69
2020/12/13 00:30:42;;;;;;;86.80;35.90;;;7.60;99.90;;;;;;4391172;32;20152;-72
2020/12/13 00:33:14;;;;;;;89.67;36.73;;;7.70;99.90;;;;;;4400034;32;20157;-71
2020/12/13 00:35:41;;;;;;;89.07;39.00;;;7.70;99.90;;;;;;4389095;32;20190;-73
2020/12/13 00:38:08;;;;;;;90.70;34.90;;;7.70;99.90;;;;;;4398017;32;20175;-70
2020/12/13 00:40:37;;;;;;;74.27;33.30;;;7.70;99.90;;;;;;4392678;32;20182;-70
2020/12/13 00:43:03;;;;;;;78.23;32.90;;;7.70;99.90;;;;;;4389620;32;20168;-70
2020/12/13 00:45:30;;;;;;;82.77;33.47;;;7.70;99.90;;;;;;4392845;32;20619;-70
2020/12/13 00:48:06;;;;;;;75.87;32.07;;;7.70;99.90;;;;;;4402849;32;20198;-70
2020/12/13 00:50:33;;;;;;;84.77;33.97;;;7.70;99.90;;;;;;4401832;32;20155;-71
2020/12/13 00:53:05;;;;;;;81.87;35.17;;;7.70;99.90;;;;;;4404258;32;20250;-71
2020/12/13 00:55:31;;;;;;;95.70;38.00;;;7.60;99.90;;;;;;4398862;32;20210;-71
2020/12/13 00:57:57;;;;;;;89.73;37.33;;;7.40;99.90;;;;;;4400606;32;20174;-70
2020/12/13 01:00:29;;;;;;;90.10;37.40;;;7.50;99.90;;;;;;4397494;32;20202;-68
2020/12/13 01:02:58;;;;;;;85.63;34.53;;;7.50;99.90;;;;;;4388906;32;20191;-69
2020/12/13 01:05:24;;;;;;;87.10;35.17;;;7.60;99.90;;;;;;4389942;32;20495;-71
2020/12/13 01:07:51;;;;;;;70.17;31.83;;;7.70;99.90;;;;;;4389610;32;20167;-69
2020/12/13 01:10:18;;;;;;;78.93;35.03;;;7.60;99.90;;;;;;4400876;32;20171;-70
2020/12/13 01:12:47;;;;;;;77.27;33.03;;;7.50;99.90;;;;;;4404551;32;20155;-74
2020/12/13 01:15:17;;;;;;;69.97;32.80;;;7.50;99.90;;;;;;4404627;32;20226;-73
2020/12/13 01:17:50;;;;;;;75.40;33.80;;;7.50;99.90;;;;;;4405330;32;20517;-72
2020/12/13 01:20:18;;;;;;;70.30;31.47;;;7.50;99.90;;;;;;4391408;32;20168;-71
2020/12/13 01:22:44;;;;;;;95.00;37.67;;;7.50;99.90;;;;;;4391489;32;20194;-70
2020/12/13 01:25:12;;;;;;;76.37;33.80;;;7.50;99.90;;;;;;4391917;32;20163;-70
2020/12/13 01:27:39;;;;;;;72.30;32.13;;;7.40;99.90;;;;;;4391878;32;20606;-70
2020/12/13 01:30:07;;;;;;;79.37;36.20;;;7.50;99.90;;;;;;4399447;32;20175;-70
2020/12/13 01:32:37;;;;;;;73.77;33.60;;;7.50;99.90;;;;;;4391433;32;20579;-70
2020/12/13 01:35:04;;;;;;;70.77;31.43;;;7.50;99.90;;;;;;4391263;32;20152;-70
2020/12/13 01:37:30;;;;;;;66.27;31.57;;;7.50;99.90;;;;;;4400297;32;20163;-71
2020/12/13 01:39:58;;;;;;;66.27;31.70;;;7.40;99.90;;;;;;4397216;32;20168;-70
2020/12/13 01:42:24;;;;;;;63.77;29.43;;;7.50;99.90;;;;;;4391507;32;20152;-70
2020/12/13 01:44:51;;;;;;;65.63;30.30;;;7.40;99.90;;;;;;4391410;32;20195;-72
2020/12/13 01:47:18;;;;;;;64.43;30.90;;;7.50;99.90;;;;;;4392624;32;20168;-70
2020/12/13 01:49:46;;;;;;;65.03;30.93;;;7.40;99.90;;;;;;4391054;32;20532;-72
2020/12/13 01:55:04;;;;;;;68.27;30.97;;;7.50;99.90;;;;;;4405360;32;20201;-70
2020/12/13 01:57:34;;;;;;;69.40;31.80;;;7.50;99.90;;;;;;4404402;32;20258;-69
2020/12/13 02:00:06;;;;;;;74.57;31.83;;;7.50;99.90;;;;;;4398925;32;20558;-70
2020/12/13 02:02:38;;;;;;;69.30;32.47;;;7.50;99.90;;;;;;4402851;32;20179;-69
2020/12/13 02:05:05;;;;;;;72.67;30.83;;;7.50;99.90;;;;;;4401910;32;20492;-70
2020/12/13 02:07:31;;;;;;;71.40;31.50;;;7.50;99.90;;;;;;4405428;32;20532;-72
2020/12/13 02:09:58;;;;;;;78.63;34.30;;;7.50;99.90;;;;;;4400998;32;20623;-70
2020/12/13 02:12:26;;;;;;;69.70;31.93;;;7.50;99.90;;;;;;4392880;32;20163;-70
2020/12/13 02:14:52;;;;;;;74.63;32.53;;;7.50;99.90;;;;;;4401919;32;20168;-72
2020/12/13 02:17:21;;;;;;;78.53;32.50;;;7.50;99.90;;;;;;4402459;32;20628;-69
2020/12/13 02:19:47;;;;;;;76.03;34.73;;;7.50;99.90;;;;;;4404296;32;20502;-71
2020/12/13 02:22:16;;;;;;;70.47;32.10;;;7.50;99.90;;;;;;4404251;32;20175;-74
2020/12/13 02:24:43;;;;;;;81.50;33.70;;;7.50;99.90;;;;;;4402697;32;20148;-73
2020/12/13 02:27:10;;;;;;;70.33;32.67;;;7.50;99.90;;;;;;4400440;32;20290;-71
2020/12/13 02:29:36;;;;;;;74.63;32.37;;;7.50;99.90;;;;;;4403156;32;20206;-69
2020/12/13 02:32:05;;;;;;;79.90;33.37;;;7.60;99.90;;;;;;4390087;32;20151;-70
2020/12/13 02:34:32;;;;;;;72.83;32.27;;;7.50;99.90;;;;;;4390370;32;20634;-69
2020/12/13 02:37:04;;;;;;;64.03;28.87;;;7.50;99.90;;;;;;4390267;32;20232;-71
2020/12/13 02:39:31;;;;;;;62.17;30.00;;;7.60;99.90;;;;;;4392420;32;20186;-71
2020/12/13 02:42:01;;;;;;;68.10;31.50;;;7.60;99.90;;;;;;4390153;32;20219;-72
2020/12/13 02:44:28;;;;;;;64.77;29.87;;;7.60;99.90;;;;;;4399662;32;20318;-72
2020/12/13 02:46:57;;;;;;;62.43;29.40;;;7.50;99.90;;;;;;4393236;32;20180;-70
2020/12/13 02:49:23;;;;;;;70.70;29.17;;;7.60;99.90;;;;;;4390798;32;20174;-70
2020/12/13 02:51:51;;;;;;;59.07;28.33;;;7.60;99.90;;;;;;4403718;32;20306;-69
2020/12/13 02:54:19;;;;;;;58.90;27.50;;;7.60;99.90;;;;;;4396178;32;20220;-73
2020/12/13 02:56:47;;;;;;;61.23;29.93;;;7.60;99.90;;;;;;4391385;32;20170;-70
2020/12/13 02:59:13;;;;;;;66.93;29.97;;;7.60;99.90;;;;;;4391295;32;20219;-70
2020/12/13 03:01:39;;;;;;;59.67;29.03;;;7.70;99.90;;;;;;4398526;32;20223;-70
2020/12/13 03:04:06;;;;;;;65.93;29.33;;;7.60;99.90;;;;;;4403932;32;20175;-72
2020/12/13 03:06:32;;;;;;;67.63;29.90;;;7.70;99.90;;;;;;4390747;32;20164;-71
2020/12/13 03:08:59;;;;;;;68.03;30.27;;;7.70;99.90;;;;;;4396340;32;20190;-71
2020/12/13 03:11:25;;;;;;;64.90;29.23;;;7.70;99.90;;;;;;4401754;32;20202;-70
2020/12/13 03:13:52;;;;;;;63.30;29.90;;;7.70;99.90;;;;;;4401089;32;20168;-71
2020/12/13 03:16:19;;;;;;;64.03;29.17;;;7.70;99.90;;;;;;4401073;32;20191;-69
2020/12/13 03:18:46;;;;;;;61.27;30.70;;;7.80;99.90;;;;;;4404761;32;20564;-68
2020/12/13 03:21:12;;;;;;;55.83;27.70;;;7.80;99.90;;;;;;4401871;32;20553;-71
2020/12/13 03:23:38;;;;;;;65.57;31.50;;;7.80;99.90;;;;;;4402785;32;20195;-72
2020/12/13 03:26:05;;;;;;;61.77;30.33;;;7.80;99.90;;;;;;4390367;32;20144;-69
2020/12/13 03:28:31;;;;;;;58.70;28.90;;;7.80;99.90;;;;;;4403505;32;20148;-70
2020/12/13 03:30:58;;;;;;;63.33;29.47;;;7.70;99.90;;;;;;4400239;32;20159;-70
2020/12/13 03:33:25;;;;;;;69.90;31.10;;;7.90;99.90;;;;;;4389373;32;20565;-70
2020/12/13 03:35:51;;;;;;;63.10;30.33;;;7.80;99.90;;;;;;4399146;32;20163;-70
2020/12/13 03:38:18;;;;;;;64.23;30.77;;;7.90;99.90;;;;;;4389478;32;20160;-70
2020/12/13 03:40:44;;;;;;;62.53;30.00;;;7.80;99.90;;;;;;4395064;32;20570;-70
2020/12/13 03:43:10;;;;;;;59.70;30.80;;;7.80;99.90;;;;;;4397419;32;20258;-70
2020/12/13 03:45:37;;;;;;;65.63;30.30;;;7.90;99.90;;;;;;4390354;32;20148;-68
2020/12/13 03:48:05;;;;;;;62.03;30.63;;;7.90;99.90;;;;;;4390814;32;20152;-70
2020/12/13 03:50:38;;;;;;;59.60;29.43;;;7.90;99.90;;;;;;4404179;32;20207;-71
2020/12/13 03:53:08;;;;;;;61.20;29.67;;;7.90;99.90;;;;;;4398895;32;20211;-71
2020/12/13 03:55:35;;;;;;;56.33;29.17;;;7.80;99.90;;;;;;4389573;32;20181;-70
2020/12/13 03:58:01;;;;;;;62.03;31.57;;;7.90;99.90;;;;;;4390229;32;20279;-73
2020/12/13 04:00:28;;;;;;;60.17;29.57;;;7.90;99.90;;;;;;4391234;32;20590;-72
2020/12/13 04:02:55;;;;;;;61.57;29.67;;;7.90;99.90;;;;;;4391908;32;20172;-72
2020/12/13 04:05:23;;;;;;;59.83;29.67;;;7.90;99.90;;;;;;4399679;32;20159;-71
2020/12/13 04:07:50;;;;;;;59.63;28.70;;;7.90;99.90;;;;;;4389800;32;20251;-74
2020/12/13 04:10:16;;;;;;;58.70;30.57;;;8.00;99.90;;;;;;4391398;32;20215;-72
2020/12/13 04:12:44;;;;;;;69.30;31.67;;;7.90;99.90;;;;;;4399677;32;20876;-70
2020/12/13 04:15:10;;;;;;;56.83;27.70;;;7.90;99.90;;;;;;4404354;32;20560;-73
2020/12/13 04:17:36;;;;;;;61.47;29.13;;;7.90;99.90;;;;;;4394433;32;20186;-72
2020/12/13 04:20:04;;;;;;;67.73;30.63;;;8.00;99.90;;;;;;4399618;32;20174;-72
2020/12/13 04:22:33;;;;;;;61.47;29.00;;;7.90;99.90;;;;;;4390007;32;20198;-73
2020/12/13 04:25:00;;;;;;;59.80;30.00;;;8.00;99.90;;;;;;4400236;32;20229;-72
2020/12/13 04:27:28;;;;;;;62.17;31.40;;;8.00;99.90;;;;;;4404487;32;20195;-70
2020/12/13 04:29:54;;;;;;;61.73;30.83;;;8.00;99.90;;;;;;4390280;32;20180;-70
2020/12/13 04:32:24;;;;;;;64.87;29.87;;;8.10;99.90;;;;;;4391945;32;20148;-71
2020/12/13 04:34:50;;;;;;;63.63;29.23;;;8.00;99.90;;;;;;4395631;32;20183;-73
2020/12/13 04:37:17;;;;;;;65.23;31.00;;;8.00;99.90;;;;;;4403324;32;20231;-73
2020/12/13 04:39:45;;;;;;;64.00;29.03;;;8.00;99.90;;;;;;4402095;32;20515;-73
2020/12/13 04:42:13;;;;;;;59.37;26.73;;;8.00;99.90;;;;;;4404227;32;20414;-72
2020/12/13 04:44:40;;;;;;;49.17;21.47;;;8.00;99.90;;;;;;4403747;32;20226;-72
2020/12/13 04:47:08;;;;;;;61.47;27.87;;;8.10;99.90;;;;;;4401013;32;20161;-71
2020/12/13 04:49:35;;;;;;;58.03;27.50;;;8.00;99.90;;;;;;4392231;32;20168;-69
2020/12/13 04:52:03;;;;;;;51.20;27.47;;;8.00;99.90;;;;;;4407510;32;20219;-73
2020/12/13 04:54:31;;;;;;;58.40;27.87;;;8.10;99.90;;;;;;4394265;32;20229;-71
2020/12/13 04:56:59;;;;;;;53.47;26.97;;;8.00;99.90;;;;;;4394256;32;20516;-70
2020/12/13 04:59:26;;;;;;;63.20;28.47;;;8.00;99.90;;;;;;4402441;32;20606;-71
2020/12/13 05:01:54;;;;;;;55.27;26.53;;;8.00;99.90;;;;;;4404758;32;22518;-70
2020/12/13 05:04:20;;;;;;;61.63;26.93;;;8.10;99.90;;;;;;4403258;32;20202;-71
2020/12/13 05:06:47;;;;;;;53.40;25.67;;;8.00;99.90;;;;;;4398425;32;20534;-70
2020/12/13 05:09:16;;;;;;;55.00;26.50;;;8.10;99.90;;;;;;4405473;32;20165;-70
2020/12/13 05:11:45;;;;;;;50.70;25.53;;;8.00;99.90;;;;;;4406479;32;20227;-70
2020/12/13 05:14:13;;;;;;;54.40;25.97;;;8.10;99.90;;;;;;4402489;32;20495;-70
2020/12/13 05:16:39;;;;;;;56.33;25.53;;;8.00;99.90;;;;;;4392396;32;20586;-71
2020/12/13 05:19:06;;;;;;;53.83;25.73;;;8.10;99.90;;;;;;4392270;32;20168;-70
2020/12/13 05:21:33;;;;;;;53.83;25.60;;;8.20;99.90;;;;;;4402602;32;20160;-71
2020/12/13 05:24:03;;;;;;;55.17;28.33;;;8.10;99.90;;;;;;4398441;32;20230;-70
2020/12/13 05:26:29;;;;;;;63.40;28.53;;;8.10;99.90;;;;;;4397541;32;20317;-70
2020/12/13 05:28:59;;;;;;;60.90;27.03;;;8.10;99.90;;;;;;4399411;32;20164;-71
2020/12/13 05:31:30;;;;;;;50.37;25.60;;;8.10;99.90;;;;;;4391321;32;20179;-70
2020/12/13 05:34:01;;;;;;;49.07;26.90;;;8.10;99.90;;;;;;4397512;32;20209;-70
2020/12/13 05:36:28;;;;;;;50.63;25.53;;;8.10;99.90;;;;;;4392988;32;20140;-72
2020/12/13 05:38:57;;;;;;;46.57;24.07;;;8.10;99.90;;;;;;4393999;32;20598;-70
2020/12/13 05:41:29;;;;;;;47.27;24.13;;;8.10;99.90;;;;;;4405130;32;20475;-70
2020/12/13 05:44:05;;;;;;;48.10;24.70;;;8.10;99.90;;;;;;4400982;32;20181;-69
2020/12/13 05:46:52;;;;;;;47.53;24.23;;;8.10;99.90;;;;;;4400950;32;20219;-69
2020/12/13 05:52:03;;;;;;;40.57;20.73;;;8.00;99.90;;;;;;4353720;32;20284;-70
2020/12/13 05:54:30;;;;;;;43.07;22.40;;;8.00;99.90;;;;;;4343985;33;20199;-72
2020/12/13 05:56:58;;;;;;;44.53;23.63;;;8.00;99.90;;;;;;4344648;33;20232;-68
2020/12/13 05:59:26;;;;;;;44.70;22.80;;;8.00;99.90;;;;;;4343568;33;20153;-72
2020/12/13 06:01:56;;;;;;;48.33;23.27;;;8.00;99.90;;;;;;4344157;33;20315;-72
2020/12/13 06:04:25;;;;;;;49.97;23.93;;;8.00;99.90;;;;;;4348674;33;20185;-70
2020/12/13 06:06:55;;;;;;;44.90;24.07;;;8.00;99.90;;;;;;4351624;33;20165;-70
2020/12/13 06:09:32;;;;;;;47.77;23.77;;;8.00;99.90;;;;;;4348582;32;20590;-70
2020/12/13 06:12:02;;;;;;;53.47;24.27;;;8.00;99.90;;;;;;4343385;33;20165;-69
2020/12/13 06:14:28;;;;;;;52.57;23.53;;;7.90;99.90;;;;;;4342797;33;20156;-70
2020/12/13 06:16:58;;;;;;;53.03;25.87;;;8.00;99.90;;;;;;4349596;33;20689;-70
2020/12/13 06:19:25;;;;;;;48.93;23.37;;;8.00;99.90;;;;;;4343297;33;20223;-71
2020/12/13 06:21:55;;;;;;;48.83;24.57;;;8.10;99.90;;;;;;4349854;33;20179;-71
2020/12/13 06:24:22;;;;;;;49.70;24.23;;;8.00;99.90;;;;;;4346166;32;20184;-70
2020/12/13 06:26:50;;;;;;;52.40;23.17;;;8.00;99.90;;;;;;4343039;33;20228;-70
2020/12/13 06:29:20;;;;;;;47.57;22.67;;;8.00;99.90;;;;;;4372987;32;20171;-70
2020/12/13 06:31:47;;;;;;;47.80;23.17;;;8.10;99.90;;;;;;4399682;32;20144;-71
2020/12/13 06:34:14;;;;;;;46.13;22.33;;;8.10;99.90;;;;;;4392568;32;20183;-71
2020/12/13 06:36:41;;;;;;;48.60;23.37;;;8.00;99.90;;;;;;4402990;32;20197;-71
2020/12/13 06:39:12;;;;;;;55.33;23.30;;;8.10;99.90;;;;;;4393060;32;20243;-71
2020/12/13 06:41:42;;;;;;;54.03;25.57;;;8.10;99.90;;;;;;4397860;32;20170;-73
2020/12/13 06:44:16;;;;;;;51.90;24.30;;;8.00;99.90;;;;;;4395144;32;20171;-72
2020/12/13 06:46:45;;;;;;;49.53;24.13;;;8.10;99.90;;;;;;4391821;32;20179;-72
2020/12/13 06:49:12;;;;;;;48.20;22.67;;;8.00;99.90;;;;;;4397906;32;20160;-71
2020/12/13 06:51:41;;;;;;;50.80;22.73;;;8.00;99.90;;;;;;4391972;32;20631;-71
2020/12/13 06:54:08;;;;;;;51.33;21.50;;;8.10;99.90;;;;;;4395050;32;20249;-73
2020/12/13 06:56:35;;;;;;;43.83;20.53;;;8.10;99.90;;;;;;4395565;32;20464;-74
2020/12/13 06:59:04;;;;;;;35.87;18.93;;;8.10;99.90;;;;;;4396696;32;20207;-71
2020/12/13 07:01:33;;;;;;;44.83;21.03;;;8.10;99.90;;;;;;4391335;32;20579;-71
2020/12/13 07:04:24;;;;;;;43.37;20.63;;;8.10;99.90;;;;;;4396761;32;20306;-72
2020/12/13 07:06:57;;;;;;;41.73;19.80;;;8.10;99.90;;;;;;4394688;32;20144;-73
2020/12/13 07:09:24;;;;;;;37.37;19.00;;;8.10;99.90;;;;;;4392191;32;20221;-72
2020/12/13 07:11:51;;;;;;;38.77;21.67;;;8.10;99.90;;;;;;4393817;32;20267;-73
2020/12/13 07:14:24;;;;;;;44.20;20.53;;;8.10;99.90;;;;;;4395887;32;20536;-72
2020/12/13 07:16:59;;;;;;;44.60;22.80;;;8.10;99.90;;;;;;4390545;32;20200;-73
2020/12/13 07:19:30;;;;;;;43.57;22.00;;;8.10;99.90;;;;;;4394192;32;20576;-73
2020/12/13 07:22:02;;;;;;;42.27;22.63;;;8.00;99.90;;;;;;4393680;32;20572;-72
2020/12/13 07:24:28;;;;;;;42.53;21.90;;;8.10;99.90;;;;;;4392875;32;20155;-72
2020/12/13 07:26:55;;;;;;;38.20;21.13;;;8.20;99.90;;;;;;4391718;32;20488;-71
2020/12/13 07:29:21;;;;;;;44.47;22.97;;;8.10;99.90;;;;;;4396058;32;20213;-72
2020/12/13 07:31:48;;;;;;;44.63;23.20;;;8.10;99.90;;;;;;4392421;32;20215;-73
2020/12/13 07:34:14;;;;;;;43.30;23.23;;;8.20;99.90;;;;;;4394689;32;20166;-74
2020/12/13 07:36:41;;;;;;;47.27;23.63;;;8.20;99.90;;;;;;4091314;32;9837139;-72
2020/12/13 07:39:13;;;;;;;47.33;24.07;;;8.20;99.90;;;;;;4391897;32;20179;-71
2020/12/13 07:41:39;;;;;;;44.07;24.07;;;8.20;99.90;;;;;;4394815;32;20238;-69
2020/12/13 07:44:07;;;;;;;41.33;22.10;;;8.20;99.90;;;;;;4391041;32;20227;-70
2020/12/13 07:46:35;;;;;;;41.73;23.10;;;8.20;99.90;;;;;;4396554;32;20180;-69
2020/12/13 07:49:10;;;;;;;51.60;25.57;;;8.40;99.90;;;;;;4392211;32;20164;-71
2020/12/13 07:51:38;;;;;;;46.27;23.90;;;8.20;99.90;;;;;;4396669;32;20151;-70
2020/12/13 07:54:22;;;;;;;50.37;25.37;;;8.20;99.90;;;;;;4395277;32;20947;-71
2020/12/13 07:56:55;;;;;;;47.87;25.67;;;8.20;99.90;;;;;;4390475;32;20172;-71
2020/12/13 07:59:23;;;;;;;49.57;25.50;;;8.20;99.90;;;;;;4393114;32;20207;-71
2020/12/13 08:01:51;;;;;;;59.27;28.90;;;8.20;99.90;;;;;;4395634;32;20239;-71
2020/12/13 08:04:38;;;;;;;52.60;28.30;;;8.20;99.90;;;;;;4392693;32;21024;-70
2020/12/13 08:07:05;;;;;;;53.17;27.97;;;8.20;99.90;;;;;;4392410;32;20632;-70
2020/12/13 08:09:32;;;;;;;50.67;26.63;;;8.20;99.90;;;;;;4392036;32;20181;-69
2020/12/13 08:11:59;;;;;;;49.80;25.83;;;8.20;99.90;;;;;;4391659;32;20170;-72
2020/12/13 08:14:29;;;;;;;46.07;24.93;;;8.20;99.90;;;;;;4390238;32;20615;-70
2020/12/13 08:16:57;;;;;;;42.00;23.43;;;8.30;99.90;;;;;;4392269;32;20182;-71
2020/12/13 08:19:29;;;;;;;45.43;26.07;;;8.30;99.90;;;;;;4394130;32;20564;-71
2020/12/13 08:22:02;;;;;;;45.20;24.73;;;8.30;99.90;;;;;;4395503;32;20156;-72
2020/12/13 08:24:43;;;;;;;44.80;23.93;;;8.30;99.90;;;;;;4399441;32;21573;-70
2020/12/13 08:27:18;;;;;;;43.70;23.07;;;8.30;99.90;;;;;;4397327;32;20168;-70
2020/12/13 08:29:54;;;;;;;40.60;22.00;;;8.30;99.90;;;;;;4393329;32;20155;-70
2020/12/13 08:32:25;;;;;;;42.17;22.60;;;8.20;99.90;;;;;;4398071;32;20187;-70
2020/12/13 08:34:52;;;;;;;40.60;22.30;;;8.20;99.90;;;;;;4395314;32;20179;-69
2020/12/13 08:37:28;;;;;;;40.63;20.43;;;8.20;99.90;;;;;;4368766;32;20205;-70
2020/12/13 08:40:06;;;;;;;35.50;20.17;;;8.20;99.90;;;;;;4371775;32;20326;-70
2020/12/13 08:42:34;;;;;;;33.03;19.87;;;8.20;99.90;;;;;;4371696;32;20229;-70
2020/12/13 08:45:06;;;;;;;38.10;20.90;;;8.30;99.90;;;;;;4370751;32;20209;-71
2020/12/13 08:47:33;;;;;;;40.73;22.43;;;8.20;99.90;;;;;;4364881;32;20490;-68
2020/12/13 08:50:05;;;;;;;37.53;20.67;;;8.20;99.90;;;;;;4370039;32;20168;-69
2020/12/13 08:52:35;;;;;;;36.30;20.90;;;8.20;99.90;;;;;;4368261;32;20194;-69
2020/12/13 08:55:05;;;;;;;34.00;19.90;;;8.20;99.90;;;;;;4369056;32;20156;-70
2020/12/13 09:00:17;;;;;;;26.80;15.90;;;8.20;99.90;;;;;;4371951;32;20192;-70
2020/12/13 09:03:03;;;;;;;35.80;19.37;;;8.30;99.90;;;;;;4372862;32;20624;-69
2020/12/13 09:05:31;;;;;;;31.93;17.07;;;8.20;99.90;;;;;;4366209;32;20322;-71
2020/12/13 09:07:58;;;;;;;33.17;18.57;;;8.30;99.90;;;;;;4370823;32;20172;-71
2020/12/13 09:10:27;;;;;;;28.00;17.10;;;8.10;99.90;;;;;;4368688;32;20168;-71
2020/12/13 09:12:59;;;;;;;38.70;18.13;;;8.20;99.90;;;;;;4364478;32;20243;-70
2020/12/13 09:15:31;;;;;;;28.37;17.03;;;8.30;99.90;;;;;;4366638;32;20232;-71
2020/12/13 09:17:59;;;;;;;29.33;17.20;;;8.20;99.90;;;;;;4370668;32;20530;-72
2020/12/13 09:20:36;;;;;;;28.83;15.63;;;8.30;99.90;;;;;;4367864;32;20525;-71
2020/12/13 09:23:10;;;;;;;33.53;16.33;;;8.30;99.90;;;;;;4365773;32;20147;-70
2020/12/13 09:25:38;;;;;;;30.80;15.17;;;8.40;99.90;;;;;;4370736;32;20156;-71
2020/12/13 09:28:05;;;;;;;28.37;15.00;;;8.30;99.90;;;;;;4370560;32;20224;-70
2020/12/13 09:30:33;;;;;;;32.30;17.87;;;8.30;99.90;;;;;;4368292;32;20211;-70
2020/12/13 09:33:01;;;;;;;29.27;16.77;;;8.30;99.90;;;;;;4370697;32;20220;-71
2020/12/13 09:35:30;;;;;;;27.83;16.57;;;8.30;99.90;;;;;;4375922;32;20168;-70
2020/12/13 09:38:00;;;;;;;34.47;18.93;;;8.30;99.90;;;;;;4395669;32;20162;-71
2020/12/13 09:40:32;;;;;;;33.43;17.77;;;8.30;99.90;;;;;;4401319;32;20160;-70
2020/12/13 09:43:07;;;;;;;34.70;18.13;;;8.30;99.90;;;;;;4391218;32;20160;-70
2020/12/13 09:45:38;;;;;;;27.40;17.03;;;8.20;99.90;;;;;;4393511;32;20255;-71
2020/12/13 09:48:09;;;;;;;26.40;15.80;;;8.20;99.90;;;;;;4395962;32;20549;-70
2020/12/13 09:50:35;;;;;;;28.97;17.37;;;8.10;99.90;;;;;;4390675;32;20215;-72
2020/12/13 09:53:06;;;;;;;25.67;15.87;;;8.20;99.90;;;;;;4395293;32;20187;-70
2020/12/13 09:55:53;;;;;;;27.90;16.50;;;8.30;99.90;;;;;;4397541;32;20167;-72
2020/12/13 09:58:28;;;;;;;23.73;14.10;;;8.20;99.90;;;;;;4396701;32;20227;-72
2020/12/13 10:01:04;;;;;;;23.10;13.27;;;8.20;99.90;;;;;;4396508;32;20147;-72
2020/12/13 10:03:31;;;;;;;27.03;16.50;;;8.20;99.90;;;;;;4392127;32;20199;-71
2020/12/13 10:12:04;;;;;;;21.50;12.90;;;8.10;99.90;;;;;;4353648;32;20262;-71
2020/12/13 10:14:35;;;;;;;26.87;14.73;;;8.10;99.90;;;;;;4350810;33;20251;-70
2020/12/13 10:17:07;;;;;;;24.47;14.50;;;8.10;99.90;;;;;;4351941;33;20200;-70
2020/12/13 10:19:43;;;;;;;36.20;15.57;;;8.20;99.90;;;;;;4354671;33;20538;-70
2020/12/13 10:22:15;;;;;;;27.10;14.80;;;8.20;99.90;;;;;;4349528;33;20208;-71
2020/12/13 10:24:41;;;;;;;20.80;13.23;;;8.40;99.90;;;;;;4350622;33;20200;-71
2020/12/13 10:27:10;;;;;;;30.17;14.27;;;8.40;99.90;;;;;;4354041;33;20240;-71
2020/12/13 10:29:45;;;;;;;22.90;14.73;;;8.40;99.90;;;;;;4349418;33;20165;-70
2020/12/13 10:32:31;;;;;;;26.90;15.47;;;8.40;99.90;;;;;;4351617;32;20266;-71
2020/12/13 10:35:04;;;;;;;27.43;15.43;;;8.30;99.90;;;;;;4354079;32;20179;-70
2020/12/13 10:37:42;;;;;;;23.60;14.57;;;8.30;99.90;;;;;;4343113;32;20244;-71
2020/12/13 10:40:15;;;;;;;27.67;15.10;;;8.40;99.90;;;;;;4338611;33;20165;-71
2020/12/13 10:42:44;;;;;;;27.23;14.20;;;8.40;99.90;;;;;;4337819;33;20170;-70
2020/12/13 10:45:17;;;;;;;25.67;14.47;;;8.40;99.90;;;;;;4339114;33;20255;-70
2020/12/13 10:47:43;;;;;;;24.20;14.33;;;8.30;99.90;;;;;;4345220;32;20289;-70
2020/12/13 10:50:17;;;;;;;26.63;13.27;;;8.40;99.90;;;;;;4369197;32;20171;-71
2020/12/13 10:52:55;;;;;;;26.13;13.73;;;8.40;99.90;;;;;;4365044;32;20199;-70
2020/12/13 10:55:35;;;;;;;23.50;12.23;;;8.50;99.90;;;;;;4370195;32;20160;-69
2020/12/13 10:58:18;;;;;;;20.37;12.23;;;8.50;99.90;;;;;;4370847;32;20207;-70
2020/12/13 11:00:51;;;;;;;19.37;11.70;;;8.40;99.90;;;;;;4369277;32;20152;-70
2020/12/13 11:03:19;;;;;;;22.70;11.03;;;8.50;99.90;;;;;;4366887;32;20171;-70
2020/12/13 11:05:46;;;;;;;20.77;11.43;;;8.50;99.90;;;;;;4366457;32;20236;-70
2020/12/13 11:08:14;;;;;;;23.83;11.57;;;8.50;99.90;;;;;;4367915;32;20306;-70
2020/12/13 11:10:48;;;;;;;20.17;10.83;;;8.50;99.90;;;;;;4366798;32;20185;-71
2020/12/13 11:13:20;;;;;;;21.70;10.47;;;8.50;99.90;;;;;;4367203;32;20171;-70
2020/12/13 11:15:49;;;;;;;18.00;10.50;;;8.50;99.90;;;;;;4370153;32;20149;-71
2020/12/13 11:18:17;;;;;;;20.27;9.87;;;8.60;99.90;;;;;;4369430;32;20186;-71
2020/12/13 11:20:46;;;;;;;19.13;9.60;;;8.60;99.90;;;;;;4366775;32;20149;-71
2020/12/13 11:23:18;;;;;;;16.30;9.73;;;8.60;99.90;;;;;;4366125;32;20228;-71
2020/12/13 11:25:47;;;;;;;20.23;9.60;;;8.50;99.90;;;;;;4368520;32;20161;-71
2020/12/13 11:28:24;;;;;;;17.33;10.43;;;8.60;99.90;;;;;;4370702;32;20160;-71
2020/12/13 11:30:58;;;;;;;20.10;10.60;;;8.60;99.90;;;;;;4368534;32;20532;-71
2020/12/13 11:33:29;;;;;;;24.53;11.77;;;8.60;99.90;;;;;;4369513;32;20191;-71
2020/12/13 11:35:58;;;;;;;17.67;10.23;;;8.60;99.90;;;;;;4361859;32;20578;-70
2020/12/13 11:38:25;;;;;;;17.30;10.20;;;8.60;99.90;;;;;;4385274;32;20190;-72
2020/12/13 11:41:10;;;;;;;16.50;9.50;;;8.60;99.90;;;;;;4385038;32;20531;-71
2020/12/13 11:43:50;;;;;;;15.67;9.07;;;8.60;99.90;;;;;;4389251;32;20194;-70
2020/12/13 11:47:01;;;;;;;18.07;8.80;;;8.60;99.90;;;;;;4386277;32;20148;-71
2020/12/13 11:49:51;;;;;;;18.37;9.87;;;8.50;99.90;;;;;;4388665;32;20664;-72
2020/12/13 11:52:55;;;;;;;18.33;8.67;;;8.50;99.90;;;;;;4390243;32;20252;-71
2020/12/13 11:56:00;;;;;;;15.30;7.90;;;8.50;99.90;;;;;;4385679;32;20235;-70
2020/12/13 11:58:51;;;;;;;18.40;8.20;;;8.50;99.90;;;;;;4386218;32;20211;-72
2020/12/13 12:04:54;;;;;;;13.97;7.83;;;8.30;99.90;;;;;;4319074;33;20568;-71
2020/12/13 12:07:22;;;;;;;14.83;7.17;;;8.30;99.90;;;;;;4323084;33;20487;-71
2020/12/13 12:10:23;;;;;;;11.00;6.73;;;8.30;99.90;;;;;;4319600;33;20213;-73
2020/12/13 12:13:06;;;;;;;18.03;8.47;;;8.40;99.90;;;;;;4325532;33;20161;-72
2020/12/13 12:15:41;;;;;;;16.33;7.53;;;8.30;99.90;;;;;;4323326;33;20610;-72
2020/12/13 12:18:27;;;;;;;14.20;7.40;;;8.30;99.90;;;;;;4321785;33;20188;-72
2020/12/13 12:21:15;;;;;;;15.23;6.80;;;8.30;99.90;;;;;;4321604;33;20161;-72
2020/12/13 12:24:50;;;;;;;14.87;7.73;;;8.30;99.90;;;;;;4320763;33;20228;-72
2020/12/13 12:30:39;;;;;;;15.30;6.60;;;8.20;99.90;;;;;;4292900;33;20251;-71
2020/12/13 12:33:05;;;;;;;15.00;7.00;;;8.20;99.90;;;;;;4284182;33;20351;-75
2020/12/13 12:35:42;;;;;;;9.30;6.27;;;8.30;99.90;;;;;;4292539;33;20210;-70
2020/12/13 12:38:27;;;;;;;12.23;6.77;;;8.20;99.90;;;;;;4293353;33;20162;-71
2020/12/13 12:40:53;;;;;;;15.30;7.37;;;8.20;99.90;;;;;;4341487;32;20669;-72
2020/12/13 12:43:28;;;;;;;11.07;6.10;;;8.20;99.90;;;;;;4347689;33;20184;-71
2020/12/13 12:45:54;;;;;;;9.67;6.80;;;8.10;99.90;;;;;;4345401;33;20236;-72
2020/12/13 12:48:34;;;;;;;9.17;6.67;;;8.20;99.90;;;;;;4348670;33;20432;-71
2020/12/13 12:51:02;;;;;;;18.50;6.73;;;8.30;99.90;;;;;;4347357;33;20168;-73
2020/12/13 12:53:36;;;;;;;15.30;7.27;;;8.30;99.90;;;;;;4349422;32;20556;-72
2020/12/13 12:56:06;;;;;;;8.73;6.50;;;8.30;99.90;;;;;;4342931;33;20521;-72
2020/12/13 12:58:56;;;;;;;13.20;6.50;;;8.40;99.90;;;;;;4344982;32;20165;-73
2020/12/13 13:01:35;;;;;;;16.97;6.57;;;8.40;99.90;;;;;;4379356;32;20172;-73
2020/12/13 13:04:10;;;;;;;14.47;5.73;;;8.40;99.90;;;;;;4387827;32;20194;-71
2020/12/13 13:07:31;;;;;;;;;;;;;;;;;;;;;
2020/12/13 13:10:06;;;;;;;13.67;5.30;;;8.40;99.90;;;;;;4394205;32;20182;-72
2020/12/13 13:12:33;;;;;;;10.87;5.87;;;8.40;99.90;;;;;;4391876;32;20179;-70
2020/12/13 13:15:09;;;;;;;11.37;6.60;;;8.40;99.90;;;;;;4389651;32;20215;-71
2020/12/13 13:17:41;;;;;;;14.67;5.70;;;8.30;99.90;;;;;;4394074;32;20151;-72